Time;durP1;ratioP1;P1;durP2;ratioP2;P2;SDS_P1;SDS_P2;PMS_P1;PMS_P2;Temp;Humidity;BMP_temperature;BMP_pressure;BME280_temperature;BME280_humidity;BME280_pressure;Samples;Min_cycle;Max_cycle;Signal;HPM_P1;HPM_P2
2023/08/10 00:01:19;;;;;;;2.50;2.30;;;15.00;99.90;;;;;;5000644;28;20038;-41
2023/08/10 00:03:45;;;;;;;2.58;2.38;;;15.00;99.90;;;;;;5005038;28;20085;-41
2023/08/10 00:06:11;;;;;;;2.72;2.53;;;15.00;99.90;;;;;;5002624;28;20022;-39
2023/08/10 00:08:37;;;;;;;3.70;2.40;;;15.00;99.90;;;;;;4997084;28;20499;-41
2023/08/10 00:11:04;;;;;;;2.58;2.38;;;15.00;99.90;;;;;;5002277;28;20034;-41
2023/08/10 00:13:29;;;;;;;2.53;2.25;;;15.00;99.90;;;;;;5002490;28;20026;-42
2023/08/10 00:15:55;;;;;;;2.55;2.35;;;15.00;99.90;;;;;;5000486;28;20041;-39
2023/08/10 00:18:21;;;;;;;2.10;2.00;;;15.00;99.90;;;;;;5000715;28;20026;-36
2023/08/10 00:20:46;;;;;;;2.53;2.33;;;15.00;99.90;;;;;;4996149;28;20109;-41
2023/08/10 00:23:12;;;;;;;2.58;2.38;;;15.00;99.90;;;;;;5002721;28;20510;-41
2023/08/10 00:25:38;;;;;;;3.22;2.20;;;15.00;99.90;;;;;;5000212;28;20029;-41
2023/08/10 00:28:04;;;;;;;2.65;2.42;;;15.00;99.90;;;;;;4998548;28;20049;-40
2023/08/10 00:30:30;;;;;;;3.58;2.50;;;15.00;99.90;;;;;;4994997;28;20022;-42
2023/08/10 00:32:56;;;;;;;3.78;2.20;;;15.00;99.90;;;;;;4996326;28;20022;-40
2023/08/10 00:35:23;;;;;;;2.63;2.42;;;15.00;99.90;;;;;;5002479;28;20025;-41
2023/08/10 00:37:49;;;;;;;4.75;2.88;;;15.10;99.90;;;;;;5000822;28;20042;-41
2023/08/10 00:40:16;;;;;;;3.15;2.67;;;14.90;99.90;;;;;;5001141;28;20034;-31
2023/08/10 00:42:41;;;;;;;3.08;2.60;;;14.90;99.90;;;;;;5005452;28;20502;-32
2023/08/10 00:45:09;;;;;;;2.78;2.50;;;15.00;99.90;;;;;;5000662;28;20025;-34
2023/08/10 00:47:35;;;;;;;2.87;2.47;;;15.00;99.90;;;;;;4995942;28;20484;-30
2023/08/10 00:50:01;;;;;;;3.72;2.55;;;14.90;99.90;;;;;;4999605;28;20497;-31
2023/08/10 00:52:27;;;;;;;2.63;2.42;;;15.00;99.90;;;;;;5003172;28;20037;-31
2023/08/10 00:54:53;;;;;;;3.38;2.88;;;15.00;99.90;;;;;;4999900;28;20477;-33
2023/08/10 00:57:20;;;;;;;3.85;2.72;;;15.00;99.90;;;;;;5011312;28;20073;-31
2023/08/10 00:59:46;;;;;;;3.92;3.00;;;14.90;99.90;;;;;;5006113;28;20515;-32
2023/08/10 01:02:12;;;;;;;3.13;2.63;;;15.00;99.90;;;;;;5002019;28;20045;-40
2023/08/10 01:04:39;;;;;;;2.67;2.47;;;15.00;99.90;;;;;;5006381;28;20029;-40
2023/08/10 01:07:26;;;;;;;2.55;2.35;;;14.90;99.90;;;;;;5006132;28;20028;-41
2023/08/10 01:10:04;;;;;;;3.35;2.55;;;15.00;99.90;;;;;;5004245;28;20056;-40
2023/08/10 01:12:44;;;;;;;3.70;2.83;;;15.00;99.90;;;;;;4989539;28;20711;-41
2023/08/10 01:15:22;;;;;;;3.28;2.95;;;15.00;99.90;;;;;;5005548;28;20037;-41
2023/08/10 01:17:51;;;;;;;3.03;2.50;;;14.90;99.90;;;;;;5007082;28;20034;-40
2023/08/10 01:20:19;;;;;;;3.00;2.67;;;15.00;99.90;;;;;;5000553;28;20033;-40
2023/08/10 01:22:54;;;;;;;2.88;2.42;;;14.90;99.90;;;;;;5004561;28;20033;-41
2023/08/10 01:25:22;;;;;;;3.08;2.40;;;15.00;99.90;;;;;;4999050;28;20629;-39
2023/08/10 01:27:48;;;;;;;4.85;2.53;;;14.90;99.90;;;;;;5006387;28;20104;-39
2023/08/10 01:30:14;;;;;;;5.20;2.40;;;14.90;99.90;;;;;;5001857;28;20049;-41
2023/08/10 01:32:39;;;;;;;2.72;2.53;;;14.90;99.90;;;;;;5007478;28;20042;-42
2023/08/10 01:35:06;;;;;;;2.53;2.33;;;15.00;99.90;;;;;;4999103;28;20188;-41
2023/08/10 01:37:35;;;;;;;3.15;2.35;;;15.00;99.90;;;;;;5005489;28;20441;-40
2023/08/10 01:40:01;;;;;;;3.40;2.40;;;15.00;99.90;;;;;;5003784;28;20027;-39
2023/08/10 01:42:26;;;;;;;3.60;2.28;;;15.00;99.90;;;;;;5007119;28;20033;-41
2023/08/10 01:44:52;;;;;;;8.25;2.83;;;15.00;99.90;;;;;;5002785;28;20030;-41
2023/08/10 01:47:50;;;;;;;2.55;2.35;;;15.00;99.90;;;;;;4999450;28;20065;-40
2023/08/10 01:50:18;;;;;;;3.83;2.63;;;14.90;99.90;;;;;;5001937;28;20548;-41
2023/08/10 01:52:53;;;;;;;3.13;2.70;;;14.80;99.90;;;;;;4998634;28;20076;-41
2023/08/10 01:55:20;;;;;;;3.45;2.60;;;14.70;99.90;;;;;;5005132;28;20042;-41
2023/08/10 01:57:46;;;;;;;2.88;2.50;;;14.70;99.90;;;;;;4997834;28;20099;-41
2023/08/10 02:00:12;;;;;;;3.92;2.60;;;14.80;99.90;;;;;;5000161;28;20046;-41
2023/08/10 02:02:38;;;;;;;4.60;2.92;;;14.80;99.90;;;;;;5001393;28;20064;-39
2023/08/10 02:05:05;;;;;;;2.60;2.40;;;14.80;99.90;;;;;;5001988;28;20538;-41
2023/08/10 02:07:31;;;;;;;4.25;2.40;;;14.80;99.90;;;;;;5001388;28;20030;-41
2023/08/10 02:09:57;;;;;;;3.33;2.90;;;14.70;99.90;;;;;;5007232;28;20387;-32
2023/08/10 02:12:23;;;;;;;2.65;2.45;;;14.70;99.90;;;;;;5001271;28;20448;-31
2023/08/10 02:14:49;;;;;;;2.95;2.70;;;14.70;99.90;;;;;;5003154;28;20431;-30
2023/08/10 02:17:15;;;;;;;2.92;2.63;;;14.80;99.90;;;;;;5000108;28;20030;-40
2023/08/10 02:19:41;;;;;;;3.35;2.67;;;14.80;99.90;;;;;;5002356;28;20073;-41
2023/08/10 02:22:07;;;;;;;2.60;2.40;;;14.80;99.90;;;;;;5002488;28;20053;-32
2023/08/10 02:24:33;;;;;;;6.03;2.58;;;14.90;99.90;;;;;;5000921;28;20109;-34
2023/08/10 02:26:59;;;;;;;2.50;2.30;;;14.90;99.90;;;;;;5000255;28;20048;-37
2023/08/10 02:29:24;;;;;;;3.15;2.80;;;14.90;99.90;;;;;;4998195;28;20073;-34
2023/08/10 02:31:50;;;;;;;3.40;3.10;;;14.90;99.90;;;;;;5002390;28;20496;-33
2023/08/10 02:34:16;;;;;;;3.08;2.80;;;14.80;99.90;;;;;;5003938;28;20087;-33
2023/08/10 02:36:41;;;;;;;3.25;2.90;;;14.70;99.90;;;;;;5002792;28;20030;-34
2023/08/10 02:39:07;;;;;;;3.10;2.80;;;14.70;99.90;;;;;;5005419;28;20037;-32
2023/08/10 02:41:32;;;;;;;4.18;2.80;;;14.70;99.90;;;;;;5003785;28;20479;-33
2023/08/10 02:43:58;;;;;;;3.33;3.13;;;14.70;99.90;;;;;;4999824;28;20029;-35
2023/08/10 02:46:24;;;;;;;2.85;2.60;;;14.80;99.90;;;;;;5000878;28;20038;-34
2023/08/10 02:48:49;;;;;;;4.78;3.10;;;14.80;99.90;;;;;;5002391;28;20065;-32
2023/08/10 02:53:45;;;;;;;3.30;3.00;;;14.70;99.90;;;;;;4997388;28;20084;-76
2023/08/10 02:56:11;;;;;;;3.40;3.10;;;14.60;99.90;;;;;;4988227;28;20029;-76
2023/08/10 02:58:36;;;;;;;3.67;2.92;;;14.60;99.90;;;;;;5015676;28;20025;-77
2023/08/10 03:01:06;;;;;;;3.33;3.03;;;14.60;99.90;;;;;;5008755;28;20547;-77
2023/08/10 03:03:33;;;;;;;3.60;3.30;;;14.60;99.90;;;;;;5011008;28;20017;-78
2023/08/10 03:05:59;;;;;;;3.55;3.20;;;14.60;99.90;;;;;;5012763;28;20049;-77
2023/08/10 03:08:25;;;;;;;6.07;3.40;;;14.60;99.90;;;;;;5010443;28;20033;-77
2023/08/10 03:10:51;;;;;;;3.78;3.38;;;14.60;99.90;;;;;;5009629;28;20029;-77
2023/08/10 03:13:16;;;;;;;5.53;3.42;;;14.60;99.90;;;;;;5015272;28;20060;-77
2023/08/10 03:15:42;;;;;;;4.63;3.03;;;14.60;99.90;;;;;;5011460;28;20061;-70
2023/08/10 03:18:08;;;;;;;3.65;3.10;;;14.60;99.90;;;;;;5011391;28;20494;-70
2023/08/10 03:20:33;;;;;;;3.33;3.03;;;14.70;99.90;;;;;;5008045;28;20038;-71
2023/08/10 03:22:59;;;;;;;3.20;2.90;;;14.60;99.90;;;;;;5002540;28;20046;-70
2023/08/10 03:25:25;;;;;;;4.50;3.28;;;14.60;99.90;;;;;;5000763;28;20754;-71
2023/08/10 03:27:50;;;;;;;5.20;3.20;;;14.60;99.90;;;;;;5005787;28;20033;-71
2023/08/10 03:30:16;;;;;;;4.72;3.30;;;14.60;99.90;;;;;;5007105;28;20422;-70
2023/08/10 03:32:42;;;;;;;5.05;3.58;;;14.60;99.90;;;;;;5002920;28;20482;-71
2023/08/10 03:35:08;;;;;;;3.58;3.28;;;14.50;99.90;;;;;;5008926;28;20037;-73
2023/08/10 03:37:33;;;;;;;4.13;3.47;;;14.50;99.90;;;;;;5005925;28;20041;-69
2023/08/10 03:39:59;;;;;;;5.07;3.65;;;14.50;99.90;;;;;;5001879;28;20038;-72
2023/08/10 03:42:25;;;;;;;4.45;3.22;;;14.60;99.90;;;;;;5006401;28;20474;-70
2023/08/10 03:44:50;;;;;;;4.43;3.50;;;14.60;99.90;;;;;;5001266;28;20084;-70
2023/08/10 03:47:16;;;;;;;4.03;3.40;;;14.60;99.90;;;;;;5006927;28;20079;-70
2023/08/10 03:49:41;;;;;;;3.15;2.53;;;14.60;99.90;;;;;;5010358;28;20029;-71
2023/08/10 03:52:07;;;;;;;2.20;2.00;;;14.60;99.90;;;;;;5001157;28;20055;-71
2023/08/10 03:54:32;;;;;;;2.38;2.15;;;14.50;99.90;;;;;;5005532;28;20081;-73
2023/08/10 03:56:58;;;;;;;16.70;3.22;;;14.50;99.90;;;;;;5003477;28;20056;-71
2023/08/10 03:59:24;;;;;;;12.80;3.20;;;14.50;99.90;;;;;;5005974;28;20092;-70
2023/08/10 04:01:50;;;;;;;3.28;2.60;;;14.50;99.90;;;;;;5004777;28;20088;-70
2023/08/10 04:04:15;;;;;;;3.00;2.70;;;14.40;99.90;;;;;;5007479;28;20053;-71
2023/08/10 04:06:41;;;;;;;2.58;2.38;;;14.40;99.90;;;;;;5007148;28;20059;-74
2023/08/10 04:09:06;;;;;;;2.70;2.20;;;14.30;99.90;;;;;;5015721;28;20031;-74
2023/08/10 04:11:32;;;;;;;4.53;2.67;;;14.30;99.90;;;;;;4999610;28;20065;-75
2023/08/10 04:13:58;;;;;;;4.05;2.25;;;14.40;99.90;;;;;;5009791;28;20034;-75
2023/08/10 04:16:23;;;;;;;2.65;2.42;;;14.40;99.90;;;;;;5012557;28;20034;-75
2023/08/10 04:18:49;;;;;;;3.78;2.65;;;14.50;99.90;;;;;;5013444;28;20026;-75
2023/08/10 04:21:15;;;;;;;3.20;2.65;;;14.50;99.90;;;;;;5004544;28;20094;-76
2023/08/10 04:23:41;;;;;;;2.60;2.38;;;14.40;99.90;;;;;;5005677;28;20526;-75
2023/08/10 04:26:08;;;;;;;3.25;2.10;;;14.40;99.90;;;;;;5003670;28;20165;-71
2023/08/10 04:28:33;;;;;;;2.47;2.28;;;14.30;99.90;;;;;;5009213;28;20030;-71
2023/08/10 04:30:59;;;;;;;2.90;2.30;;;14.30;99.90;;;;;;5005317;28;20049;-72
2023/08/10 04:33:25;;;;;;;4.30;2.88;;;14.30;99.90;;;;;;5007499;28;20415;-71
2023/08/10 04:35:51;;;;;;;2.70;2.50;;;14.30;99.90;;;;;;5007614;28;20056;-71
2023/08/10 04:38:16;;;;;;;3.60;3.28;;;14.40;99.90;;;;;;5010160;28;20026;-71
2023/08/10 04:40:43;;;;;;;10.25;3.40;;;14.30;99.90;;;;;;5003985;28;20033;-71
2023/08/10 04:43:09;;;;;;;14.52;3.22;;;14.20;99.90;;;;;;4999558;28;20106;-71
2023/08/10 04:45:34;;;;;;;10.48;3.15;;;14.20;99.90;;;;;;5010559;28;20064;-71
2023/08/10 04:48:00;;;;;;;4.60;3.03;;;14.10;99.90;;;;;;5008404;28;20025;-71
2023/08/10 04:50:25;;;;;;;3.53;2.95;;;14.10;99.90;;;;;;5004402;28;20053;-71
2023/08/10 04:52:51;;;;;;;4.53;3.70;;;14.20;99.90;;;;;;5004805;28;20049;-71
2023/08/10 04:55:18;;;;;;;6.80;3.60;;;14.20;99.90;;;;;;5004976;28;20037;-70
2023/08/10 04:57:44;;;;;;;4.90;3.13;;;14.20;99.90;;;;;;5005308;28;20142;-71
2023/08/10 05:00:14;;;;;;;5.53;3.30;;;14.20;99.90;;;;;;5006480;28;20044;-70
2023/08/10 05:02:41;;;;;;;4.05;3.65;;;14.30;99.90;;;;;;5007771;28;20104;-71
2023/08/10 05:05:08;;;;;;;6.25;3.83;;;14.30;99.90;;;;;;5003144;28;20052;-71
2023/08/10 05:07:34;;;;;;;6.13;4.18;;;14.30;99.90;;;;;;5008669;28;20041;-71
2023/08/10 05:10:06;;;;;;;5.65;3.97;;;14.40;99.90;;;;;;5005239;28;20041;-71
2023/08/10 05:12:34;;;;;;;4.53;3.92;;;14.50;99.90;;;;;;5011330;28;20038;-72
2023/08/10 05:14:59;;;;;;;;;;;14.50;99.90;;;;;;5003612;28;20034;-73
2023/08/10 05:17:25;;;;;;;4.55;3.38;;;14.50;99.90;;;;;;5005805;28;19914;-77
2023/08/10 05:19:50;;;;;;;4.95;3.30;;;14.50;99.90;;;;;;5009410;28;20427;-76
2023/08/10 05:22:16;;;;;;;6.35;3.88;;;14.50;99.90;;;;;;4996936;28;20124;-77
2023/08/10 05:24:42;;;;;;;10.90;4.20;;;14.60;99.90;;;;;;5013921;28;20034;-78
2023/08/10 05:27:07;;;;;;;19.17;5.00;;;14.60;99.90;;;;;;5015267;28;20057;-78
2023/08/10 05:29:33;;;;;;;4.00;3.60;;;14.50;99.90;;;;;;5011039;28;20099;-78
2023/08/10 05:31:59;;;;;;;6.75;4.03;;;14.50;99.90;;;;;;5004732;28;20310;-78
2023/08/10 05:34:25;;;;;;;5.43;3.83;;;14.50;99.90;;;;;;4997944;28;20049;-78
2023/08/10 05:36:51;;;;;;;4.05;3.65;;;14.60;99.90;;;;;;4996868;28;20734;-78
2023/08/10 05:39:17;;;;;;;4.13;3.70;;;14.70;99.90;;;;;;5000108;28;21219;-78
2023/08/10 05:41:43;;;;;;;5.53;3.83;;;14.70;99.90;;;;;;4986592;28;20483;-77
2023/08/10 05:44:09;;;;;;;6.03;4.20;;;14.70;99.90;;;;;;5000412;28;20049;-77
2023/08/10 05:46:35;;;;;;;4.43;3.97;;;14.80;99.90;;;;;;5003121;28;20113;-77
2023/08/10 05:49:00;;;;;;;4.78;3.67;;;14.80;99.90;;;;;;5020057;28;20042;-77
2023/08/10 05:51:27;;;;;;;5.20;3.35;;;14.80;99.90;;;;;;5012250;28;20538;-76
2023/08/10 05:53:53;;;;;;;8.07;3.95;;;14.90;99.90;;;;;;5017628;28;20030;-80
2023/08/10 05:56:19;;;;;;;4.40;3.83;;;15.00;99.90;;;;;;4997843;28;20052;-82
2023/08/10 05:58:51;;;;;;;4.80;3.80;;;15.10;99.90;;;;;;5010714;28;20764;-80
2023/08/10 06:01:17;;;;;;;3.90;3.42;;;15.10;99.90;;;;;;5012089;28;20049;-79
2023/08/10 06:03:43;;;;;;;5.13;3.65;;;15.20;99.90;;;;;;5014090;28;20681;-79
2023/08/10 06:06:09;;;;;;;4.80;3.45;;;15.20;99.90;;;;;;5010781;28;20049;-77
2023/08/10 06:08:36;;;;;;;4.85;3.70;;;15.30;99.90;;;;;;5013051;28;20030;-77
2023/08/10 06:11:02;;;;;;;3.65;3.25;;;15.50;99.90;;;;;;5010824;28;20041;-78
2023/08/10 06:13:28;;;;;;;4.88;3.60;;;15.60;99.90;;;;;;5019930;28;20099;-78
2023/08/10 06:15:54;;;;;;;4.22;3.40;;;15.70;99.90;;;;;;5018834;28;20052;-78
2023/08/10 06:18:20;;;;;;;4.88;4.13;;;15.70;99.90;;;;;;5016058;28;20061;-76
2023/08/10 06:20:46;;;;;;;3.60;3.30;;;15.80;99.90;;;;;;5013805;28;20109;-78
2023/08/10 06:23:12;;;;;;;4.57;3.30;;;15.80;99.90;;;;;;5011316;28;20041;-77
2023/08/10 06:25:38;;;;;;;4.93;3.92;;;15.80;99.90;;;;;;5014343;28;20030;-84
2023/08/10 06:28:04;;;;;;;3.72;3.10;;;15.90;99.90;;;;;;5014908;28;20034;-84
2023/08/10 06:30:29;;;;;;;3.78;3.38;;;16.10;99.90;;;;;;5016769;28;20033;-85
2023/08/10 06:32:55;;;;;;;3.53;3.13;;;16.30;99.90;;;;;;5010122;28;20061;-84
2023/08/10 06:35:21;;;;;;;4.00;3.42;;;16.30;99.90;;;;;;4998045;28;20161;-85
2023/08/10 06:37:50;;;;;;;3.40;3.10;;;16.30;99.90;;;;;;5017462;28;20501;-85
2023/08/10 06:40:16;;;;;;;3.10;2.72;;;16.30;99.90;;;;;;5018593;28;20137;-85
2023/08/10 06:42:42;;;;;;;3.95;2.80;;;16.30;99.90;;;;;;5001437;28;20616;-88
2023/08/10 06:45:08;;;;;;;2.80;2.60;;;16.40;99.90;;;;;;5014043;28;20034;-85
2023/08/10 06:47:37;;;;;;;3.05;2.72;;;16.40;99.90;;;;;;5008900;28;20117;-75
2023/08/10 06:50:05;;;;;;;3.03;2.75;;;16.50;99.90;;;;;;5006555;28;20029;-75
2023/08/10 06:52:31;;;;;;;3.05;2.80;;;16.40;99.90;;;;;;5009302;28;20057;-75
2023/08/10 06:54:56;;;;;;;2.83;2.60;;;16.50;99.90;;;;;;5006495;28;20038;-74
2023/08/10 06:57:22;;;;;;;3.90;2.47;;;16.60;99.90;;;;;;5006698;28;20057;-74
2023/08/10 06:59:48;;;;;;;3.17;2.25;;;16.70;99.90;;;;;;5004145;28;20091;-75
2023/08/10 07:02:16;;;;;;;2.92;2.60;;;16.70;99.90;;;;;;4991064;28;20534;-75
2023/08/10 07:04:43;;;;;;;2.63;2.10;;;16.80;99.90;;;;;;5007163;28;20088;-76
2023/08/10 07:07:10;;;;;;;2.13;1.90;;;16.90;99.90;;;;;;5010268;28;20038;-75
2023/08/10 07:09:36;;;;;;;2.55;2.35;;;17.00;99.90;;;;;;5012928;28;20026;-75
2023/08/10 07:12:03;;;;;;;1.63;1.50;;;17.20;99.90;;;;;;5005674;28;20168;-75
2023/08/10 07:14:29;;;;;;;1.48;1.38;;;17.20;99.90;;;;;;5010190;28;20034;-75
2023/08/10 07:16:55;;;;;;;1.73;1.40;;;17.10;99.90;;;;;;5007975;28;20550;-75
2023/08/10 07:19:20;;;;;;;1.75;1.40;;;17.20;99.90;;;;;;4981157;28;20061;-75
2023/08/10 07:21:46;;;;;;;1.60;1.50;;;17.40;99.90;;;;;;5013624;28;20093;-76
2023/08/10 07:24:12;;;;;;;2.83;1.30;;;17.30;99.90;;;;;;5006750;28;20038;-76
2023/08/10 07:26:38;;;;;;;2.60;1.88;;;17.60;99.90;;;;;;5007961;28;20470;-76
2023/08/10 07:29:03;;;;;;;1.88;1.60;;;17.80;99.90;;;;;;5007563;28;20136;-75
2023/08/10 07:31:31;;;;;;;2.28;1.40;;;17.90;99.90;;;;;;5006220;28;20030;-77
2023/08/10 07:33:58;;;;;;;1.80;1.35;;;18.00;99.90;;;;;;5007925;28;20026;-76
2023/08/10 07:36:25;;;;;;;1.27;1.20;;;18.10;99.90;;;;;;5013413;28;20030;-74
2023/08/10 07:38:51;;;;;;;2.17;1.40;;;17.80;99.90;;;;;;4980927;28;20038;-73
2023/08/10 07:41:16;;;;;;;2.33;1.40;;;17.80;99.90;;;;;;5005239;28;20060;-74
2023/08/10 07:43:42;;;;;;;1.23;1.17;;;17.70;99.90;;;;;;4992843;28;20034;-73
2023/08/10 07:46:08;;;;;;;1.60;1.20;;;17.80;99.90;;;;;;5004280;28;20046;-74
2023/08/10 07:48:34;;;;;;;1.85;1.00;;;18.10;99.90;;;;;;5007557;28;20053;-74
2023/08/10 07:51:00;;;;;;;1.20;1.20;;;18.10;99.90;;;;;;5003932;28;20029;-75
2023/08/10 07:53:28;;;;;;;1.75;1.40;;;17.90;99.90;;;;;;5024601;28;20061;-73
2023/08/10 07:55:54;;;;;;;1.50;1.40;;;18.00;99.90;;;;;;5026567;28;20030;-71
2023/08/10 07:58:20;;;;;;;1.85;1.38;;;18.20;99.90;;;;;;5023669;28;20405;-71
2023/08/10 08:00:46;;;;;;;1.33;1.10;;;18.20;99.90;;;;;;5023941;28;20048;-72
2023/08/10 08:03:12;;;;;;;1.10;1.02;;;18.30;99.90;;;;;;5023519;28;20038;-71
2023/08/10 08:05:40;;;;;;;2.25;1.20;;;18.50;99.90;;;;;;5021023;28;20029;-71
2023/08/10 08:08:06;;;;;;;1.35;1.25;;;18.50;99.90;;;;;;5019739;28;20091;-72
2023/08/10 08:10:32;;;;;;;3.47;1.15;;;18.60;99.90;;;;;;5019859;28;20725;-72
2023/08/10 08:12:59;;;;;;;2.38;1.20;;;18.60;99.90;;;;;;5018498;28;20029;-72
2023/08/10 08:15:25;;;;;;;1.40;1.30;;;19.10;99.90;;;;;;5022872;28;20029;-72
2023/08/10 08:18:28;;;;;;;1.20;1.10;;;19.20;99.90;;;;;;5026467;28;20049;-72
2023/08/10 08:20:53;;;;;;;1.75;1.27;;;19.40;99.90;;;;;;5019223;28;20038;-72
2023/08/10 08:23:19;;;;;;;1.33;1.20;;;19.40;99.90;;;;;;5018746;28;20049;-71
2023/08/10 08:25:45;;;;;;;2.08;1.30;;;19.60;99.90;;;;;;5018747;28;20483;-72
2023/08/10 08:28:11;;;;;;;2.58;1.15;;;19.70;99.90;;;;;;5014019;28;20796;-71
2023/08/10 08:30:36;;;;;;;1.27;1.17;;;19.70;99.90;;;;;;5020032;28;20029;-73
2023/08/10 08:33:02;;;;;;;1.58;1.20;;;19.90;99.90;;;;;;5022406;28;20395;-72
2023/08/10 08:35:27;;;;;;;1.20;1.10;;;20.10;99.90;;;;;;5020575;28;20030;-71
2023/08/10 08:37:53;;;;;;;1.13;1.02;;;19.80;99.90;;;;;;5021944;28;20436;-71
2023/08/10 08:40:20;;;;;;;1.38;1.27;;;19.70;99.90;;;;;;5018281;28;20052;-72
2023/08/10 08:42:48;;;;;;;1.23;1.15;;;19.90;99.90;;;;;;5016143;28;20822;-71
2023/08/10 08:45:15;;;;;;;1.00;1.00;;;20.10;99.90;;;;;;5017963;28;20061;-73
2023/08/10 08:47:43;;;;;;;2.25;1.33;;;20.00;99.90;;;;;;5031910;28;20053;-78
2023/08/10 08:50:10;;;;;;;2.60;1.70;;;19.80;99.90;;;;;;5027434;28;20148;-78
2023/08/10 08:52:38;;;;;;;1.80;1.20;;;20.30;99.90;;;;;;5028265;28;20203;-77
2023/08/10 08:55:05;;;;;;;1.50;1.40;;;20.20;99.90;;;;;;5029080;28;20030;-78
2023/08/10 08:57:30;;;;;;;1.42;1.23;;;19.80;99.90;;;;;;5025557;28;20022;-78
2023/08/10 08:59:56;;;;;;;1.48;1.20;;;19.80;99.90;;;;;;5035155;28;20039;-77
2023/08/10 09:02:22;;;;;;;1.20;1.10;;;19.80;99.90;;;;;;5031121;28;21485;-78
2023/08/10 09:04:48;;;;;;;1.00;1.00;;;19.80;99.90;;;;;;5034160;28;20815;-77
2023/08/10 09:07:14;;;;;;;1.25;1.17;;;20.00;99.90;;;;;;5017452;28;20048;-72
2023/08/10 09:09:40;;;;;;;3.90;1.27;;;20.00;99.90;;;;;;5023963;28;20030;-74
2023/08/10 09:12:32;;;;;;;1.27;1.17;;;20.30;99.90;;;;;;5022626;28;20025;-72
2023/08/10 09:15:05;;;;;;;2.05;1.85;;;20.30;99.90;;;;;;5017151;28;20041;-72
2023/08/10 09:17:36;;;;;;;1.40;1.10;;;20.20;99.90;;;;;;5021833;28;20036;-72
2023/08/10 09:20:05;;;;;;;1.30;1.20;;;20.00;99.90;;;;;;5021087;28;20026;-72
2023/08/10 09:22:33;;;;;;;1.35;1.25;;;20.20;99.90;;;;;;5023649;28;20487;-72
2023/08/10 09:25:00;;;;;;;1.50;1.30;;;20.20;99.90;;;;;;5021244;28;20212;-71
2023/08/10 09:27:29;;;;;;;1.40;1.20;;;20.20;99.90;;;;;;5022841;28;20784;-73
2023/08/10 09:30:05;;;;;;;1.48;1.27;;;20.20;99.90;;;;;;5025287;28;20108;-73
2023/08/10 09:32:32;;;;;;;3.50;1.20;;;20.30;99.90;;;;;;5024115;28;20046;-73
2023/08/10 09:34:58;;;;;;;3.10;1.25;;;20.30;99.90;;;;;;5025863;28;20034;-73
2023/08/10 09:37:25;;;;;;;1.20;1.10;;;20.50;99.90;;;;;;5025350;28;20034;-73
2023/08/10 09:40:11;;;;;;;1.20;1.05;;;20.90;99.90;;;;;;5019210;28;20787;-74
2023/08/10 09:42:39;;;;;;;1.30;1.20;;;21.30;99.90;;;;;;5023910;28;20482;-73
2023/08/10 09:45:10;;;;;;;2.05;1.30;;;21.40;99.90;;;;;;5016917;28;20037;-73
2023/08/10 09:47:37;;;;;;;1.63;1.23;;;21.40;99.90;;;;;;5021152;28;20091;-74
2023/08/10 09:50:05;;;;;;;1.50;1.17;;;21.30;99.90;;;;;;5022716;28;20060;-77
2023/08/10 09:52:34;;;;;;;1.08;1.00;;;21.20;99.90;;;;;;5013020;28;20579;-75
2023/08/10 09:55:00;;;;;;;1.50;1.40;;;21.10;99.90;;;;;;5004912;28;20049;-73
2023/08/10 09:57:27;;;;;;;1.48;1.23;;;21.60;99.90;;;;;;5000052;28;20057;-73
2023/08/10 09:59:53;;;;;;;2.25;1.40;;;22.00;99.90;;;;;;5010013;28;20077;-74
2023/08/10 10:02:20;;;;;;;1.40;1.05;;;22.20;99.90;;;;;;4996488;28;20152;-73
2023/08/10 10:04:46;;;;;;;1.30;1.20;;;22.60;99.90;;;;;;5002036;28;20089;-72
2023/08/10 10:07:13;;;;;;;1.30;1.20;;;22.40;99.90;;;;;;4994039;28;20107;-73
2023/08/10 10:09:44;;;;;;;1.10;1.10;;;22.50;99.90;;;;;;5004663;28;20441;-75
2023/08/10 10:12:14;;;;;;;1.00;1.00;;;22.60;99.90;;;;;;5008631;28;20037;-75
2023/08/10 10:14:42;;;;;;;1.60;1.45;;;22.20;99.90;;;;;;5007367;28;20114;-75
2023/08/10 10:17:11;;;;;;;1.60;1.33;;;21.80;99.90;;;;;;5012554;28;20084;-78
2023/08/10 10:19:40;;;;;;;1.73;1.40;;;22.00;99.90;;;;;;5012428;28;20097;-77
2023/08/10 10:22:07;;;;;;;1.38;1.27;;;22.00;99.90;;;;;;5015616;28;20030;-79
2023/08/10 10:24:33;;;;;;;1.60;1.48;;;21.80;99.90;;;;;;5015235;28;20065;-78
2023/08/10 10:27:00;;;;;;;1.58;1.48;;;21.70;99.90;;;;;;5014369;28;20030;-78
2023/08/10 10:29:52;;;;;;;2.00;1.30;;;21.60;99.90;;;;;;5014473;28;20326;-78
2023/08/10 10:32:22;;;;;;;1.50;1.40;;;21.50;99.90;;;;;;5016220;28;20045;-78
2023/08/10 10:34:52;;;;;;;2.05;1.23;;;21.30;99.90;;;;;;5014307;28;20204;-79
2023/08/10 10:37:34;;;;;;;1.30;1.20;;;21.80;99.90;;;;;;5017223;28;20065;-79
2023/08/10 10:40:15;;;;;;;1.48;1.30;;;22.20;99.90;;;;;;5013240;28;20033;-78
2023/08/10 10:43:06;;;;;;;1.10;0.93;;;22.50;99.90;;;;;;5010964;28;20037;-78
2023/08/10 10:45:43;;;;;;;1.60;1.50;;;22.50;99.90;;;;;;4996656;28;20034;-79
2023/08/10 10:48:17;;;;;;;2.03;1.50;;;22.50;99.90;;;;;;5014839;28;20125;-79
2023/08/10 10:50:43;;;;;;;2.58;1.42;;;22.60;99.90;;;;;;5016988;28;20034;-79
2023/08/10 10:53:17;;;;;;;1.40;1.30;;;22.90;99.90;;;;;;5035943;28;20047;-78
2023/08/10 10:55:55;;;;;;;1.73;1.52;;;23.20;99.90;;;;;;5031998;28;20371;-77
2023/08/10 10:58:25;;;;;;;1.60;1.50;;;23.40;99.90;;;;;;5029522;28;20088;-77
2023/08/10 11:00:52;;;;;;;1.85;1.58;;;23.60;99.90;;;;;;5031072;28;20044;-78
2023/08/10 11:03:26;;;;;;;1.50;1.40;;;23.50;99.90;;;;;;5036971;28;20037;-78
2023/08/10 11:05:52;;;;;;;2.25;1.95;;;23.10;99.90;;;;;;5039185;28;20029;-81
2023/08/10 11:08:19;;;;;;;2.40;1.38;;;23.50;99.90;;;;;;5036787;28;20631;-80
2023/08/10 11:10:45;;;;;;;2.95;1.90;;;23.70;99.90;;;;;;5034101;28;20032;-80
2023/08/10 11:13:11;;;;;;;3.30;1.95;;;23.60;99.90;;;;;;5036378;28;20021;-80
2023/08/10 11:15:37;;;;;;;3.42;1.52;;;23.70;99.90;;;;;;5036768;28;20083;-80
2023/08/10 11:18:12;;;;;;;2.28;1.50;;;24.10;99.90;;;;;;5037350;28;20112;-80
2023/08/10 11:20:51;;;;;;;1.45;1.35;;;24.30;99.90;;;;;;5034684;28;20033;-80
2023/08/10 11:23:17;;;;;;;1.50;1.40;;;24.10;99.90;;;;;;5039687;28;20486;-81
2023/08/10 11:25:51;;;;;;;3.22;1.42;;;23.80;99.90;;;;;;5036605;28;20029;-72
2023/08/10 11:28:21;;;;;;;1.63;1.27;;;23.30;99.90;;;;;;5023802;28;20551;-72
2023/08/10 11:30:48;;;;;;;1.70;1.40;;;23.50;99.90;;;;;;5022724;28;20069;-72
2023/08/10 11:33:14;;;;;;;1.63;1.50;;;23.30;99.90;;;;;;5020927;28;20105;-73
2023/08/10 11:35:44;;;;;;;3.55;1.60;;;23.20;99.90;;;;;;5024235;28;20045;-73
2023/08/10 11:38:10;;;;;;;1.60;1.50;;;23.60;99.90;;;;;;5024328;28;20477;-72
2023/08/10 11:40:36;;;;;;;2.13;1.40;;;24.00;99.90;;;;;;5014164;28;20037;-73
2023/08/10 11:43:14;;;;;;;2.17;1.35;;;24.30;99.90;;;;;;5023515;28;20042;-72
2023/08/10 11:45:40;;;;;;;1.33;1.23;;;24.20;99.90;;;;;;5026825;28;20520;-73
2023/08/10 11:48:12;;;;;;;2.20;1.90;;;24.00;99.90;;;;;;5026663;28;20044;-73
2023/08/10 11:50:39;;;;;;;1.73;1.50;;;24.30;99.90;;;;;;5011751;28;20509;-75
2023/08/10 11:53:25;;;;;;;2.45;1.35;;;24.60;99.90;;;;;;5013319;28;20057;-73
2023/08/10 11:55:51;;;;;;;1.90;1.58;;;24.70;99.90;;;;;;5001952;28;20848;-73
2023/08/10 11:58:19;;;;;;;1.92;1.70;;;24.00;99.90;;;;;;5002467;28;20038;-74
2023/08/10 12:00:49;;;;;;;;;;;23.50;99.90;;;;;;5004557;28;20100;-73
2023/08/10 12:03:16;;;;;;;1.60;1.50;;;23.30;99.90;;;;;;5004459;28;20366;-72
2023/08/10 12:06:09;;;;;;;1.67;1.58;;;23.70;99.90;;;;;;5005048;28;20037;-72
2023/08/10 12:08:38;;;;;;;2.10;1.50;;;24.20;99.90;;;;;;5001329;28;20038;-74
2023/08/10 12:11:10;;;;;;;1.60;1.50;;;24.30;99.90;;;;;;4992838;28;20914;-71
2023/08/10 12:13:46;;;;;;;2.10;1.42;;;23.70;99.90;;;;;;4997672;28;20030;-72
2023/08/10 12:16:14;;;;;;;1.58;1.48;;;23.20;99.90;;;;;;4993654;28;20045;-81
2023/08/10 12:18:40;;;;;;;2.25;1.50;;;23.50;99.90;;;;;;5016684;28;20030;-80
2023/08/10 12:21:06;;;;;;;2.40;1.30;;;24.00;99.90;;;;;;5013078;28;20042;-81
2023/08/10 12:23:32;;;;;;;2.05;1.52;;;24.20;99.90;;;;;;5018202;28;20116;-81
2023/08/10 12:25:57;;;;;;;1.50;1.40;;;23.50;99.90;;;;;;5012735;28;20072;-79
2023/08/10 12:28:23;;;;;;;2.33;1.60;;;23.30;99.90;;;;;;5014218;28;20038;-80
2023/08/10 12:30:49;;;;;;;2.03;1.50;;;23.50;99.90;;;;;;5011647;28;20045;-81
2023/08/10 12:33:16;;;;;;;2.38;1.40;;;23.70;99.90;;;;;;5012534;28;20037;-82
2023/08/10 12:35:42;;;;;;;2.70;1.63;;;24.30;99.90;;;;;;5009338;28;20018;-73
2023/08/10 12:38:11;;;;;;;2.13;1.50;;;23.90;99.90;;;;;;5007319;28;20030;-74
2023/08/10 12:40:38;;;;;;;1.52;1.42;;;23.10;99.90;;;;;;5021298;28;20095;-73
2023/08/10 12:43:05;;;;;;;3.83;1.55;;;22.90;99.90;;;;;;5005214;28;20036;-74
2023/08/10 12:45:31;;;;;;;2.85;1.50;;;23.10;99.90;;;;;;5003442;28;20069;-75
2023/08/10 12:47:58;;;;;;;1.50;1.40;;;23.60;99.90;;;;;;5001626;28;20038;-74
2023/08/10 12:50:24;;;;;;;2.40;1.48;;;23.60;99.90;;;;;;5002834;28;20086;-74
2023/08/10 12:52:50;;;;;;;1.77;1.50;;;24.00;99.90;;;;;;5002594;28;20133;-75